sensor_id;sensor_type;location;lat;lon;timestamp;temperature;humidity
26270;DHT22;15937;50.612;6.656;2022-12-29T00:03:15;10.70;99.90
26270;DHT22;15937;50.612;6.656;2022-12-29T00:07:18;10.70;99.90
26270;DHT22;15937;50.612;6.656;2022-12-29T00:11:21;10.80;99.90
26270;DHT22;15937;50.612;6.656;2022-12-29T00:15:23;10.80;99.90
26270;DHT22;15937;50.612;6.656;2022-12-29T00:19:43;10.80;99.90
26270;DHT22;15937;50.612;6.656;2022-12-29T00:24:03;10.80;99.90
26270;DHT22;15937;50.612;6.656;2022-12-29T00:28:28;10.80;99.90
26270;DHT22;15937;50.612;6.656;2022-12-29T00:32:48;10.80;99.90
26270;DHT22;15937;50.612;6.656;2022-12-29T00:37:08;10.90;99.90
26270;DHT22;15937;50.612;6.656;2022-12-29T00:41:10;10.80;99.90
26270;DHT22;15937;50.612;6.656;2022-12-29T00:45:30;10.80;99.90
26270;DHT22;15937;50.612;6.656;2022-12-29T00:49:32;10.90;99.90
26270;DHT22;15937;50.612;6.656;2022-12-29T00:53:34;10.90;99.90
26270;DHT22;15937;50.612;6.656;2022-12-29T00:57:36;11.00;99.90
26270;DHT22;15937;50.612;6.656;2022-12-29T01:01:37;11.00;99.90
26270;DHT22;15937;50.612;6.656;2022-12-29T01:05:39;10.90;99.90
26270;DHT22;15937;50.612;6.656;2022-12-29T01:09:41;10.90;99.90
26270;DHT22;15937;50.612;6.656;2022-12-29T01:14:01;10.90;99.90
26270;DHT22;15937;50.612;6.656;2022-12-29T01:18:03;10.90;99.90
26270;DHT22;15937;50.612;6.656;2022-12-29T01:22:04;10.90;99.90
26270;DHT22;15937;50.612;6.656;2022-12-29T01:26:08;10.90;99.90
26270;DHT22;15937;50.612;6.656;2022-12-29T01:30:10;10.90;99.90
26270;DHT22;15937;50.612;6.656;2022-12-29T01:34:12;11.00;99.90
26270;DHT22;15937;50.612;6.656;2022-12-29T01:38:14;10.90;99.90
26270;DHT22;15937;50.612;6.656;2022-12-29T01:42:22;10.80;99.90
26270;DHT22;15937;50.612;6.656;2022-12-29T01:46:26;10.80;99.90
26270;DHT22;15937;50.612;6.656;2022-12-29T01:50:30;10.80;99.90
26270;DHT22;15937;50.612;6.656;2022-12-29T01:54:41;10.70;99.90
26270;DHT22;15937;50.612;6.656;2022-12-29T01:58:46;10.60;99.90
26270;DHT22;15937;50.612;6.656;2022-12-29T02:02:50;10.60;99.90
26270;DHT22;15937;50.612;6.656;2022-12-29T02:06:55;10.50;99.90
26270;DHT22;15937;50.612;6.656;2022-12-29T02:10:59;10.40;99.90
26270;DHT22;15937;50.612;6.656;2022-12-29T02:15:01;10.30;99.90
26270;DHT22;15937;50.612;6.656;2022-12-29T02:35:41;10.30;99.90
26270;DHT22;15937;50.612;6.656;2022-12-29T02:44:01;10.30;99.90
26270;DHT22;15937;50.612;6.656;2022-12-29T02:52:07;10.50;99.90
26270;DHT22;15937;50.612;6.656;2022-12-29T02:56:13;10.50;99.90
26270;DHT22;15937;50.612;6.656;2022-12-29T03:00:15;10.50;99.90
26270;DHT22;15937;50.612;6.656;2022-12-29T03:08:40;10.60;99.90
26270;DHT22;15937;50.612;6.656;2022-12-29T03:12:51;10.50;99.90
26270;DHT22;15937;50.612;6.656;2022-12-29T03:17:37;10.60;99.90
26270;DHT22;15937;50.612;6.656;2022-12-29T03:21:54;10.50;99.90
26270;DHT22;15937;50.612;6.656;2022-12-29T03:26:16;10.60;99.90
26270;DHT22;15937;50.612;6.656;2022-12-29T03:30:20;10.70;99.90
26270;DHT22;15937;50.612;6.656;2022-12-29T03:34:21;10.70;99.90
26270;DHT22;15937;50.612;6.656;2022-12-29T03:38:25;10.70;99.90
26270;DHT22;15937;50.612;6.656;2022-12-29T03:42:29;10.80;99.90
26270;DHT22;15937;50.612;6.656;2022-12-29T03:46:32;10.80;99.90
26270;DHT22;15937;50.612;6.656;2022-12-29T03:50:34;10.70;99.90
26270;DHT22;15937;50.612;6.656;2022-12-29T03:54:36;10.80;99.90
26270;DHT22;15937;50.612;6.656;2022-12-29T03:58:37;10.70;99.90
26270;DHT22;15937;50.612;6.656;2022-12-29T04:02:39;10.70;99.90
26270;DHT22;15937;50.612;6.656;2022-12-29T04:06:43;10.70;99.90
26270;DHT22;15937;50.612;6.656;2022-12-29T04:10:44;10.70;99.90
26270;DHT22;15937;50.612;6.656;2022-12-29T04:14:46;10.60;99.90
26270;DHT22;15937;50.612;6.656;2022-12-29T04:18:48;10.70;99.90
26270;DHT22;15937;50.612;6.656;2022-12-29T04:22:50;10.70;99.90
26270;DHT22;15937;50.612;6.656;2022-12-29T04:26:58;10.70;99.90
26270;DHT22;15937;50.612;6.656;2022-12-29T04:30:59;10.70;99.90
26270;DHT22;15937;50.612;6.656;2022-12-29T04:35:01;10.60;99.90
26270;DHT22;15937;50.612;6.656;2022-12-29T04:39:03;10.60;99.90
26270;DHT22;15937;50.612;6.656;2022-12-29T04:43:06;10.70;99.90
26270;DHT22;15937;50.612;6.656;2022-12-29T04:47:08;10.60;99.90
26270;DHT22;15937;50.612;6.656;2022-12-29T04:51:10;10.70;99.90
26270;DHT22;15937;50.612;6.656;2022-12-29T04:55:11;10.60;99.90
26270;DHT22;15937;50.612;6.656;2022-12-29T04:59:13;10.50;99.90
26270;DHT22;15937;50.612;6.656;2022-12-29T05:03:14;10.60;99.90
26270;DHT22;15937;50.612;6.656;2022-12-29T05:07:18;10.60;99.90
26270;DHT22;15937;50.612;6.656;2022-12-29T05:11:20;10.60;99.90
26270;DHT22;15937;50.612;6.656;2022-12-29T05:15:21;10.60;99.90
26270;DHT22;15937;50.612;6.656;2022-12-29T05:19:23;10.70;99.90
26270;DHT22;15937;50.612;6.656;2022-12-29T05:23:25;10.70;99.90
26270;DHT22;15937;50.612;6.656;2022-12-29T05:27:26;10.60;99.90
26270;DHT22;15937;50.612;6.656;2022-12-29T05:31:28;10.60;99.90
26270;DHT22;15937;50.612;6.656;2022-12-29T05:35:30;10.60;99.90
26270;DHT22;15937;50.612;6.656;2022-12-29T05:39:31;10.50;99.90
26270;DHT22;15937;50.612;6.656;2022-12-29T05:43:33;10.40;99.90
26270;DHT22;15937;50.612;6.656;2022-12-29T05:47:34;10.20;99.90
26270;DHT22;15937;50.612;6.656;2022-12-29T05:51:36;10.20;99.90
26270;DHT22;15937;50.612;6.656;2022-12-29T05:55:38;10.10;99.90
26270;DHT22;15937;50.612;6.656;2022-12-29T05:59:47;10.00;99.90
26270;DHT22;15937;50.612;6.656;2022-12-29T06:03:48;10.00;99.90
26270;DHT22;15937;50.612;6.656;2022-12-29T06:07:50;10.10;99.90
26270;DHT22;15937;50.612;6.656;2022-12-29T06:11:52;10.10;99.90
26270;DHT22;15937;50.612;6.656;2022-12-29T06:15:54;10.10;99.90
26270;DHT22;15937;50.612;6.656;2022-12-29T06:19:56;10.10;99.90
26270;DHT22;15937;50.612;6.656;2022-12-29T06:23:57;10.00;99.90
26270;DHT22;15937;50.612;6.656;2022-12-29T06:27:59;10.00;99.90
26270;DHT22;15937;50.612;6.656;2022-12-29T06:32:01;10.00;99.90
26270;DHT22;15937;50.612;6.656;2022-12-29T06:36:03;10.00;99.90
26270;DHT22;15937;50.612;6.656;2022-12-29T06:40:05;10.00;99.90
26270;DHT22;15937;50.612;6.656;2022-12-29T06:44:06;9.80;99.90
26270;DHT22;15937;50.612;6.656;2022-12-29T06:48:08;9.70;99.90
26270;DHT22;15937;50.612;6.656;2022-12-29T06:52:10;9.70;99.90
26270;DHT22;15937;50.612;6.656;2022-12-29T06:56:13;9.70;99.90
26270;DHT22;15937;50.612;6.656;2022-12-29T07:00:15;9.70;99.90
26270;DHT22;15937;50.612;6.656;2022-12-29T07:04:23;9.70;99.90
26270;DHT22;15937;50.612;6.656;2022-12-29T07:08:25;9.70;99.90
26270;DHT22;15937;50.612;6.656;2022-12-29T07:12:26;9.70;99.90
26270;DHT22;15937;50.612;6.656;2022-12-29T07:16:28;9.70;99.90
26270;DHT22;15937;50.612;6.656;2022-12-29T07:20:31;9.60;99.90
26270;DHT22;15937;50.612;6.656;2022-12-29T07:24:33;9.60;99.90
26270;DHT22;15937;50.612;6.656;2022-12-29T07:28:34;9.60;99.90
26270;DHT22;15937;50.612;6.656;2022-12-29T07:32:36;9.60;99.90
26270;DHT22;15937;50.612;6.656;2022-12-29T07:36:38;9.60;99.90
26270;DHT22;15937;50.612;6.656;2022-12-29T07:40:39;9.60;99.90
26270;DHT22;15937;50.612;6.656;2022-12-29T07:44:41;9.60;99.90
26270;DHT22;15937;50.612;6.656;2022-12-29T07:48:43;9.60;99.90
26270;DHT22;15937;50.612;6.656;2022-12-29T07:52:44;9.70;99.90
26270;DHT22;15937;50.612;6.656;2022-12-29T07:56:48;9.70;99.90
26270;DHT22;15937;50.612;6.656;2022-12-29T08:00:56;9.70;99.90
26270;DHT22;15937;50.612;6.656;2022-12-29T08:04:58;9.80;99.90
26270;DHT22;15937;50.612;6.656;2022-12-29T08:08:59;9.80;99.90
26270;DHT22;15937;50.612;6.656;2022-12-29T08:13:14;9.70;99.90
26270;DHT22;15937;50.612;6.656;2022-12-29T08:17:15;9.70;99.90
26270;DHT22;15937;50.612;6.656;2022-12-29T08:21:17;9.60;99.90
26270;DHT22;15937;50.612;6.656;2022-12-29T08:25:19;9.70;99.90
26270;DHT22;15937;50.612;6.656;2022-12-29T08:29:21;9.80;99.90
26270;DHT22;15937;50.612;6.656;2022-12-29T08:33:22;9.70;99.90
26270;DHT22;15937;50.612;6.656;2022-12-29T08:37:24;9.80;99.90
26270;DHT22;15937;50.612;6.656;2022-12-29T08:41:31;9.80;99.90
26270;DHT22;15937;50.612;6.656;2022-12-29T08:45:33;9.70;99.90
26270;DHT22;15937;50.612;6.656;2022-12-29T08:49:35;9.80;99.90
26270;DHT22;15937;50.612;6.656;2022-12-29T08:53:37;9.70;99.90
26270;DHT22;15937;50.612;6.656;2022-12-29T08:57:41;9.60;99.90
26270;DHT22;15937;50.612;6.656;2022-12-29T09:01:43;9.70;99.90
26270;DHT22;15937;50.612;6.656;2022-12-29T09:05:49;9.60;99.90
26270;DHT22;15937;50.612;6.656;2022-12-29T09:09:50;9.70;99.90
26270;DHT22;15937;50.612;6.656;2022-12-29T09:13:52;9.80;99.90
26270;DHT22;15937;50.612;6.656;2022-12-29T09:17:54;9.80;99.90
26270;DHT22;15937;50.612;6.656;2022-12-29T09:21:56;9.90;99.90
26270;DHT22;15937;50.612;6.656;2022-12-29T09:25:58;9.90;99.90
26270;DHT22;15937;50.612;6.656;2022-12-29T09:29:59;10.10;99.90
26270;DHT22;15937;50.612;6.656;2022-12-29T09:34:01;10.10;99.90
26270;DHT22;15937;50.612;6.656;2022-12-29T09:38:06;10.10;99.90
26270;DHT22;15937;50.612;6.656;2022-12-29T09:42:21;10.00;99.90
26270;DHT22;15937;50.612;6.656;2022-12-29T09:46:30;10.00;99.90
26270;DHT22;15937;50.612;6.656;2022-12-29T09:50:36;10.10;99.90
26270;DHT22;15937;50.612;6.656;2022-12-29T09:54:41;10.10;99.90
26270;DHT22;15937;50.612;6.656;2022-12-29T09:58:53;10.20;99.90
26270;DHT22;15937;50.612;6.656;2022-12-29T10:03:03;10.20;99.90
26270;DHT22;15937;50.612;6.656;2022-12-29T10:07:14;10.30;99.90
26270;DHT22;15937;50.612;6.656;2022-12-29T10:15:49;10.30;99.90
26270;DHT22;15937;50.612;6.656;2022-12-29T10:19:55;10.40;99.90
26270;DHT22;15937;50.612;6.656;2022-12-29T10:23:58;10.40;99.90
26270;DHT22;15937;50.612;6.656;2022-12-29T10:28:03;10.40;99.90
26270;DHT22;15937;50.612;6.656;2022-12-29T10:32:06;10.40;99.90
26270;DHT22;15937;50.612;6.656;2022-12-29T10:36:16;10.40;99.90
26270;DHT22;15937;50.612;6.656;2022-12-29T10:41:03;10.40;99.90
26270;DHT22;15937;50.612;6.656;2022-12-29T10:44:43;10.40;99.90
26270;DHT22;15937;50.612;6.656;2022-12-29T10:48:45;10.40;99.90
26270;DHT22;15937;50.612;6.656;2022-12-29T10:52:48;10.50;99.90
26270;DHT22;15937;50.612;6.656;2022-12-29T10:57:07;10.70;99.90
26270;DHT22;15937;50.612;6.656;2022-12-29T11:01:10;10.60;99.90
26270;DHT22;15937;50.612;6.656;2022-12-29T11:09:24;10.40;99.90
26270;DHT22;15937;50.612;6.656;2022-12-29T11:13:50;10.40;99.90
26270;DHT22;15937;50.612;6.656;2022-12-29T11:17:53;10.30;99.90
26270;DHT22;15937;50.612;6.656;2022-12-29T11:21:55;10.30;99.90
26270;DHT22;15937;50.612;6.656;2022-12-29T11:30:24;10.20;99.90
26270;DHT22;15937;50.612;6.656;2022-12-29T11:34:34;10.20;99.90
26270;DHT22;15937;50.612;6.656;2022-12-29T11:39:02;10.30;99.90
26270;DHT22;15937;50.612;6.656;2022-12-29T11:43:06;10.40;99.90
26270;DHT22;15937;50.612;6.656;2022-12-29T11:47:52;10.40;99.90
26270;DHT22;15937;50.612;6.656;2022-12-29T11:51:43;10.40;99.90
26270;DHT22;15937;50.612;6.656;2022-12-29T11:55:54;10.30;99.90
26270;DHT22;15937;50.612;6.656;2022-12-29T11:59:57;10.30;99.90
26270;DHT22;15937;50.612;6.656;2022-12-29T12:04:04;10.30;99.90
26270;DHT22;15937;50.612;6.656;2022-12-29T12:08:17;10.30;99.90
26270;DHT22;15937;50.612;6.656;2022-12-29T12:12:28;10.20;99.90
26270;DHT22;15937;50.612;6.656;2022-12-29T12:16:33;10.20;99.90
26270;DHT22;15937;50.612;6.656;2022-12-29T12:20:44;10.30;99.90
26270;DHT22;15937;50.612;6.656;2022-12-29T12:24:52;10.30;99.90
26270;DHT22;15937;50.612;6.656;2022-12-29T12:29:58;10.40;99.90
26270;DHT22;15937;50.612;6.656;2022-12-29T12:33:35;10.40;99.90
26270;DHT22;15937;50.612;6.656;2022-12-29T12:45:55;10.40;99.90
26270;DHT22;15937;50.612;6.656;2022-12-29T12:58:44;10.20;99.90
26270;DHT22;15937;50.612;6.656;2022-12-29T13:07:26;10.20;99.90
26270;DHT22;15937;50.612;6.656;2022-12-29T13:16:15;10.30;99.90
26270;DHT22;15937;50.612;6.656;2022-12-29T13:20:20;10.30;99.90
26270;DHT22;15937;50.612;6.656;2022-12-29T13:25:04;10.20;99.90
26270;DHT22;15937;50.612;6.656;2022-12-29T13:28:55;10.30;99.90
26270;DHT22;15937;50.612;6.656;2022-12-29T13:37:24;10.30;99.90
26270;DHT22;15937;50.612;6.656;2022-12-29T13:41:30;10.20;99.90
26270;DHT22;15937;50.612;6.656;2022-12-29T13:45:32;10.20;99.90
26270;DHT22;15937;50.612;6.656;2022-12-29T13:49:34;10.20;99.90
26270;DHT22;15937;50.612;6.656;2022-12-29T14:06:05;10.00;99.90
26270;DHT22;15937;50.612;6.656;2022-12-29T14:10:18;10.00;99.90
26270;DHT22;15937;50.612;6.656;2022-12-29T14:14:30;10.00;99.90
26270;DHT22;15937;50.612;6.656;2022-12-29T14:18:33;10.00;99.90
26270;DHT22;15937;50.612;6.656;2022-12-29T14:22:39;9.90;99.90
26270;DHT22;15937;50.612;6.656;2022-12-29T14:26:57;9.80;99.90
26270;DHT22;15937;50.612;6.656;2022-12-29T14:30:59;9.90;99.90
26270;DHT22;15937;50.612;6.656;2022-12-29T14:35:36;9.90;99.90
26270;DHT22;15937;50.612;6.656;2022-12-29T14:43:33;9.70;99.90
26270;DHT22;15937;50.612;6.656;2022-12-29T14:47:39;9.50;99.90
26270;DHT22;15937;50.612;6.656;2022-12-29T14:51:42;9.30;99.90
26270;DHT22;15937;50.612;6.656;2022-12-29T14:55:56;9.00;99.90
26270;DHT22;15937;50.612;6.656;2022-12-29T15:04:52;8.90;99.90
26270;DHT22;15937;50.612;6.656;2022-12-29T15:08:36;8.60;99.90
26270;DHT22;15937;50.612;6.656;2022-12-29T15:12:41;8.60;99.90
26270;DHT22;15937;50.612;6.656;2022-12-29T15:16:43;8.50;99.90
26270;DHT22;15937;50.612;6.656;2022-12-29T15:20:45;8.50;99.90
26270;DHT22;15937;50.612;6.656;2022-12-29T15:24:46;8.50;99.90
26270;DHT22;15937;50.612;6.656;2022-12-29T15:28:49;8.40;99.90
26270;DHT22;15937;50.612;6.656;2022-12-29T15:32:52;8.40;99.90
26270;DHT22;15937;50.612;6.656;2022-12-29T15:36:57;8.40;99.90
26270;DHT22;15937;50.612;6.656;2022-12-29T15:41:00;8.40;99.90
26270;DHT22;15937;50.612;6.656;2022-12-29T15:45:08;8.50;99.90
26270;DHT22;15937;50.612;6.656;2022-12-29T15:49:13;8.50;99.90
26270;DHT22;15937;50.612;6.656;2022-12-29T15:53:26;8.50;99.90
26270;DHT22;15937;50.612;6.656;2022-12-29T15:57:31;8.40;99.90
26270;DHT22;15937;50.612;6.656;2022-12-29T16:01:37;8.40;99.90
26270;DHT22;15937;50.612;6.656;2022-12-29T16:05:41;8.20;99.90
26270;DHT22;15937;50.612;6.656;2022-12-29T16:10:21;8.10;99.90
26270;DHT22;15937;50.612;6.656;2022-12-29T16:14:21;8.10;99.90
26270;DHT22;15937;50.612;6.656;2022-12-29T16:18:28;8.00;99.90
26270;DHT22;15937;50.612;6.656;2022-12-29T16:22:32;8.00;99.90
26270;DHT22;15937;50.612;6.656;2022-12-29T16:26:35;8.00;99.90
26270;DHT22;15937;50.612;6.656;2022-12-29T16:30:38;8.00;99.90
26270;DHT22;15937;50.612;6.656;2022-12-29T16:38:42;7.90;99.90
26270;DHT22;15937;50.612;6.656;2022-12-29T16:42:45;7.90;99.90
26270;DHT22;15937;50.612;6.656;2022-12-29T16:51:14;7.90;99.90
26270;DHT22;15937;50.612;6.656;2022-12-29T16:55:17;7.90;99.90
26270;DHT22;15937;50.612;6.656;2022-12-29T17:03:28;8.10;99.90
26270;DHT22;15937;50.612;6.656;2022-12-29T17:07:34;8.10;99.90
26270;DHT22;15937;50.612;6.656;2022-12-29T17:11:35;8.00;99.90
26270;DHT22;15937;50.612;6.656;2022-12-29T17:16:03;8.00;99.90
26270;DHT22;15937;50.612;6.656;2022-12-29T17:20:22;8.00;99.90
26270;DHT22;15937;50.612;6.656;2022-12-29T17:24:26;8.00;99.90
26270;DHT22;15937;50.612;6.656;2022-12-29T17:28:28;7.90;99.90
26270;DHT22;15937;50.612;6.656;2022-12-29T17:32:32;7.90;99.90
26270;DHT22;15937;50.612;6.656;2022-12-29T17:36:33;7.90;99.90
26270;DHT22;15937;50.612;6.656;2022-12-29T17:40:35;7.90;99.90
26270;DHT22;15937;50.612;6.656;2022-12-29T17:44:37;7.90;99.90
26270;DHT22;15937;50.612;6.656;2022-12-29T17:48:38;7.90;99.90
26270;DHT22;15937;50.612;6.656;2022-12-29T17:52:40;8.00;99.90
26270;DHT22;15937;50.612;6.656;2022-12-29T17:56:43;8.00;99.90
26270;DHT22;15937;50.612;6.656;2022-12-29T18:00:45;7.90;99.90
26270;DHT22;15937;50.612;6.656;2022-12-29T18:04:51;8.00;99.90
26270;DHT22;15937;50.612;6.656;2022-12-29T18:08:52;7.90;99.90
26270;DHT22;15937;50.612;6.656;2022-12-29T18:13:14;7.90;99.90
26270;DHT22;15937;50.612;6.656;2022-12-29T18:17:46;7.90;99.90
26270;DHT22;15937;50.612;6.656;2022-12-29T18:21:48;7.90;99.90
26270;DHT22;15937;50.612;6.656;2022-12-29T18:30:13;7.90;99.90
26270;DHT22;15937;50.612;6.656;2022-12-29T18:34:18;7.80;99.90
26270;DHT22;15937;50.612;6.656;2022-12-29T18:38:20;7.80;99.90
26270;DHT22;15937;50.612;6.656;2022-12-29T18:42:22;7.80;99.90
26270;DHT22;15937;50.612;6.656;2022-12-29T18:46:24;7.80;99.90
26270;DHT22;15937;50.612;6.656;2022-12-29T18:50:25;7.80;99.90
26270;DHT22;15937;50.612;6.656;2022-12-29T18:54:31;7.80;99.90
26270;DHT22;15937;50.612;6.656;2022-12-29T18:58:33;7.70;99.90
26270;DHT22;15937;50.612;6.656;2022-12-29T19:02:35;7.70;99.90
26270;DHT22;15937;50.612;6.656;2022-12-29T19:06:36;7.80;99.90
26270;DHT22;15937;50.612;6.656;2022-12-29T19:10:39;7.80;99.90
26270;DHT22;15937;50.612;6.656;2022-12-29T19:14:41;7.70;99.90
26270;DHT22;15937;50.612;6.656;2022-12-29T19:18:42;7.70;99.90
26270;DHT22;15937;50.612;6.656;2022-12-29T19:22:49;7.70;99.90
26270;DHT22;15937;50.612;6.656;2022-12-29T19:26:50;7.60;99.90
26270;DHT22;15937;50.612;6.656;2022-12-29T19:30:53;7.60;99.90
26270;DHT22;15937;50.612;6.656;2022-12-29T19:34:57;7.70;99.90
26270;DHT22;15937;50.612;6.656;2022-12-29T19:38:59;7.80;99.90
26270;DHT22;15937;50.612;6.656;2022-12-29T19:43:01;7.80;99.90
26270;DHT22;15937;50.612;6.656;2022-12-29T19:47:03;7.80;99.90
26270;DHT22;15937;50.612;6.656;2022-12-29T19:51:06;7.80;99.90
26270;DHT22;15937;50.612;6.656;2022-12-29T19:55:08;7.40;99.90
26270;DHT22;15937;50.612;6.656;2022-12-29T19:59:10;7.20;99.90
26270;DHT22;15937;50.612;6.656;2022-12-29T20:03:12;7.20;99.90
26270;DHT22;15937;50.612;6.656;2022-12-29T20:07:14;7.10;99.90
26270;DHT22;15937;50.612;6.656;2022-12-29T20:11:18;7.10;99.90
26270;DHT22;15937;50.612;6.656;2022-12-29T20:15:20;7.00;99.90
26270;DHT22;15937;50.612;6.656;2022-12-29T20:19:21;6.90;99.90
26270;DHT22;15937;50.612;6.656;2022-12-29T20:23:23;7.00;99.90
26270;DHT22;15937;50.612;6.656;2022-12-29T20:27:24;7.00;99.90
26270;DHT22;15937;50.612;6.656;2022-12-29T20:31:30;6.90;99.90
26270;DHT22;15937;50.612;6.656;2022-12-29T20:35:32;6.90;99.90
26270;DHT22;15937;50.612;6.656;2022-12-29T20:39:34;7.10;99.90
26270;DHT22;15937;50.612;6.656;2022-12-29T20:43:36;7.10;99.90
26270;DHT22;15937;50.612;6.656;2022-12-29T20:47:37;7.10;99.90
26270;DHT22;15937;50.612;6.656;2022-12-29T20:51:39;7.10;99.90
26270;DHT22;15937;50.612;6.656;2022-12-29T20:56:08;7.00;99.90
26270;DHT22;15937;50.612;6.656;2022-12-29T21:00:11;7.00;99.90
26270;DHT22;15937;50.612;6.656;2022-12-29T21:04:19;6.90;99.90
26270;DHT22;15937;50.612;6.656;2022-12-29T21:08:22;7.00;99.90
26270;DHT22;15937;50.612;6.656;2022-12-29T21:12:24;6.90;99.90
26270;DHT22;15937;50.612;6.656;2022-12-29T21:16:26;6.90;99.90
26270;DHT22;15937;50.612;6.656;2022-12-29T21:20:27;6.90;99.90
26270;DHT22;15937;50.612;6.656;2022-12-29T21:24:32;6.80;99.90
26270;DHT22;15937;50.612;6.656;2022-12-29T21:28:36;6.90;99.90
26270;DHT22;15937;50.612;6.656;2022-12-29T21:32:39;6.90;99.90
26270;DHT22;15937;50.612;6.656;2022-12-29T21:36:40;6.90;99.90
26270;DHT22;15937;50.612;6.656;2022-12-29T21:40:42;6.90;99.90
26270;DHT22;15937;50.612;6.656;2022-12-29T21:44:44;6.80;99.90
26270;DHT22;15937;50.612;6.656;2022-12-29T21:49:05;6.80;99.90
26270;DHT22;15937;50.612;6.656;2022-12-29T21:53:07;6.80;99.90
26270;DHT22;15937;50.612;6.656;2022-12-29T21:57:09;6.70;99.90
26270;DHT22;15937;50.612;6.656;2022-12-29T22:01:10;6.70;99.90
26270;DHT22;15937;50.612;6.656;2022-12-29T22:05:32;6.70;99.90
26270;DHT22;15937;50.612;6.656;2022-12-29T22:09:53;6.70;99.90
26270;DHT22;15937;50.612;6.656;2022-12-29T22:14:13;6.80;99.90
26270;DHT22;15937;50.612;6.656;2022-12-29T22:18:15;6.80;99.90
26270;DHT22;15937;50.612;6.656;2022-12-29T22:22:17;6.70;99.90
26270;DHT22;15937;50.612;6.656;2022-12-29T22:26:18;6.70;99.90
26270;DHT22;15937;50.612;6.656;2022-12-29T22:30:20;6.60;99.90
26270;DHT22;15937;50.612;6.656;2022-12-29T22:34:22;6.60;99.90
26270;DHT22;15937;50.612;6.656;2022-12-29T22:38:23;6.60;99.90
26270;DHT22;15937;50.612;6.656;2022-12-29T22:42:25;6.60;99.90
26270;DHT22;15937;50.612;6.656;2022-12-29T22:46:27;6.60;99.90
26270;DHT22;15937;50.612;6.656;2022-12-29T22:50:28;6.70;99.90
26270;DHT22;15937;50.612;6.656;2022-12-29T22:54:30;6.60;99.90
26270;DHT22;15937;50.612;6.656;2022-12-29T22:58:32;6.50;99.90
26270;DHT22;15937;50.612;6.656;2022-12-29T23:02:34;6.50;99.90
26270;DHT22;15937;50.612;6.656;2022-12-29T23:06:36;6.50;99.90
26270;DHT22;15937;50.612;6.656;2022-12-29T23:10:38;6.40;99.90
26270;DHT22;15937;50.612;6.656;2022-12-29T23:14:39;6.40;99.90
26270;DHT22;15937;50.612;6.656;2022-12-29T23:18:41;6.40;99.90
26270;DHT22;15937;50.612;6.656;2022-12-29T23:22:43;6.40;99.90
26270;DHT22;15937;50.612;6.656;2022-12-29T23:26:45;6.40;99.90
26270;DHT22;15937;50.612;6.656;2022-12-29T23:30:48;6.30;99.90
26270;DHT22;15937;50.612;6.656;2022-12-29T23:34:50;6.30;99.90
26270;DHT22;15937;50.612;6.656;2022-12-29T23:38:51;6.20;99.90
26270;DHT22;15937;50.612;6.656;2022-12-29T23:42:53;6.30;99.90
26270;DHT22;15937;50.612;6.656;2022-12-29T23:46:54;6.20;99.90
26270;DHT22;15937;50.612;6.656;2022-12-29T23:50:56;6.20;99.90
26270;DHT22;15937;50.612;6.656;2022-12-29T23:54:58;6.10;99.90
26270;DHT22;15937;50.612;6.656;2022-12-29T23:59:01;6.10;99.90
